Portada
METAR-TAF:

METAR-TAF

Aeroports :

Bournemouth, Anglaterra

latitud: 50-47N, longitud: 001-50W, altitud: 11 m

Observació

L'informe es va fer fa 32 minuts, a les 07:50 UTC
Vent 3 kt amb direcció variable
Temperatura 18°C
Humitat 73%
Pressió 1015 hPa
Visibilitat 10 km o més
sense núvols per sota de 1500 mi sense presència de cumulonimbus.

METAR: EGHH 170750Z VRB03KT CAVOK 18/13 Q1015

Hora: 09:22 (08:22 UTC)

Pronòstic

L'informe es va fer fa 2 hores i 53 minuts, a les 05:29 UTC
Pronòstic vàlid del 17 a les 06 UTC al 17 a les 15 UTC
Vent 5 kt del Oest/Sud-Oest
Visibilitat 10 km o més
Escasses núvols a una alçada de 4000 ft

TAF: EGHH 170529Z 1706/1715 24005KT 9999 FEW040

Observacions i pronòstics meteorològics de més de 4000 aeroports (METAR i TAF).

Les estacions disponibles són els punts grocs i vermells al mapa.

Posi el ratolí al punt desitjat per veure el nom de l'estació.

Feu clic per veure les observacions i els pronòstics meteorològics.

Per canviar el mapa: feu clic els botons verds amb una creu de color negre per apropar; al botó verd amb un guió per allunyar la imatge; o en les fletxes verdes per a mapes adjacents.


METAR-TAF: